sensor_id;sensor_type;location;lat;lon;timestamp;P1;durP1;ratioP1;P2;durP2;ratioP2
40176;SDS011;31511;46.176;9.874;2022-11-14T00:01:21;27.85;;;19.08;;
40176;SDS011;31511;46.176;9.874;2022-11-14T00:03:48;25.67;;;20.05;;
40176;SDS011;31511;46.176;9.874;2022-11-14T00:06:15;25.45;;;20.45;;
40176;SDS011;31511;46.176;9.874;2022-11-14T00:08:41;30.70;;;21.58;;
40176;SDS011;31511;46.176;9.874;2022-11-14T00:11:07;28.95;;;22.52;;
40176;SDS011;31511;46.176;9.874;2022-11-14T00:13:33;26.45;;;20.63;;
40176;SDS011;31511;46.176;9.874;2022-11-14T00:16:00;25.15;;;20.33;;
40176;SDS011;31511;46.176;9.874;2022-11-14T00:18:27;25.63;;;21.20;;
40176;SDS011;31511;46.176;9.874;2022-11-14T00:20:53;27.88;;;20.45;;
40176;SDS011;31511;46.176;9.874;2022-11-14T00:23:19;26.80;;;20.67;;
40176;SDS011;31511;46.176;9.874;2022-11-14T00:25:47;27.92;;;20.73;;
40176;SDS011;31511;46.176;9.874;2022-11-14T00:28:13;25.00;;;17.42;;
40176;SDS011;31511;46.176;9.874;2022-11-14T00:30:39;24.73;;;17.85;;
40176;SDS011;31511;46.176;9.874;2022-11-14T00:33:06;29.10;;;20.75;;
40176;SDS011;31511;46.176;9.874;2022-11-14T00:35:32;31.35;;;21.20;;
40176;SDS011;31511;46.176;9.874;2022-11-14T00:37:58;26.52;;;18.92;;
40176;SDS011;31511;46.176;9.874;2022-11-14T00:40:25;24.55;;;19.35;;
40176;SDS011;31511;46.176;9.874;2022-11-14T00:42:53;23.60;;;17.55;;
40176;SDS011;31511;46.176;9.874;2022-11-14T00:45:20;24.52;;;17.98;;
40176;SDS011;31511;46.176;9.874;2022-11-14T00:47:48;22.92;;;19.65;;
40176;SDS011;31511;46.176;9.874;2022-11-14T00:50:17;24.02;;;18.65;;
40176;SDS011;31511;46.176;9.874;2022-11-14T00:52:43;25.42;;;18.25;;
40176;SDS011;31511;46.176;9.874;2022-11-14T00:55:09;23.15;;;17.27;;
40176;SDS011;31511;46.176;9.874;2022-11-14T00:57:35;26.10;;;18.80;;
40176;SDS011;31511;46.176;9.874;2022-11-14T01:00:02;24.67;;;16.30;;
40176;SDS011;31511;46.176;9.874;2022-11-14T01:02:30;23.48;;;17.90;;
40176;SDS011;31511;46.176;9.874;2022-11-14T01:04:56;25.40;;;19.00;;
40176;SDS011;31511;46.176;9.874;2022-11-14T01:07:23;20.60;;;16.35;;
40176;SDS011;31511;46.176;9.874;2022-11-14T01:09:51;25.08;;;16.95;;
40176;SDS011;31511;46.176;9.874;2022-11-14T01:12:17;23.65;;;17.33;;
40176;SDS011;31511;46.176;9.874;2022-11-14T01:14:43;21.27;;;17.23;;
40176;SDS011;31511;46.176;9.874;2022-11-14T01:17:10;25.58;;;18.50;;
40176;SDS011;31511;46.176;9.874;2022-11-14T01:19:36;22.75;;;15.80;;
40176;SDS011;31511;46.176;9.874;2022-11-14T01:22:02;20.85;;;16.42;;
40176;SDS011;31511;46.176;9.874;2022-11-14T01:24:28;22.83;;;16.08;;
40176;SDS011;31511;46.176;9.874;2022-11-14T01:26:54;18.23;;;15.50;;
40176;SDS011;31511;46.176;9.874;2022-11-14T01:29:22;18.77;;;14.63;;
40176;SDS011;31511;46.176;9.874;2022-11-14T01:31:50;21.25;;;14.40;;
40176;SDS011;31511;46.176;9.874;2022-11-14T01:34:16;23.00;;;16.40;;
40176;SDS011;31511;46.176;9.874;2022-11-14T01:36:42;24.52;;;16.45;;
40176;SDS011;31511;46.176;9.874;2022-11-14T01:39:08;18.98;;;16.27;;
40176;SDS011;31511;46.176;9.874;2022-11-14T01:41:35;23.42;;;17.30;;
40176;SDS011;31511;46.176;9.874;2022-11-14T01:44:01;20.55;;;16.52;;
40176;SDS011;31511;46.176;9.874;2022-11-14T01:46:32;20.00;;;15.68;;
40176;SDS011;31511;46.176;9.874;2022-11-14T01:49:02;23.73;;;17.80;;
40176;SDS011;31511;46.176;9.874;2022-11-14T01:51:32;19.88;;;15.68;;
40176;SDS011;31511;46.176;9.874;2022-11-14T01:54:01;25.00;;;17.60;;
40176;SDS011;31511;46.176;9.874;2022-11-14T01:56:33;22.05;;;17.58;;
40176;SDS011;31511;46.176;9.874;2022-11-14T01:59:02;23.30;;;17.30;;
40176;SDS011;31511;46.176;9.874;2022-11-14T02:01:30;21.70;;;15.88;;
40176;SDS011;31511;46.176;9.874;2022-11-14T02:03:57;18.23;;;12.65;;
40176;SDS011;31511;46.176;9.874;2022-11-14T02:06:26;15.45;;;12.85;;
40176;SDS011;31511;46.176;9.874;2022-11-14T02:08:54;15.05;;;11.85;;
40176;SDS011;31511;46.176;9.874;2022-11-14T02:11:22;15.05;;;12.68;;
40176;SDS011;31511;46.176;9.874;2022-11-14T02:13:50;19.77;;;12.15;;
40176;SDS011;31511;46.176;9.874;2022-11-14T02:16:16;18.52;;;13.25;;
40176;SDS011;31511;46.176;9.874;2022-11-14T02:18:44;17.95;;;13.57;;
40176;SDS011;31511;46.176;9.874;2022-11-14T02:21:10;20.02;;;14.80;;
40176;SDS011;31511;46.176;9.874;2022-11-14T02:23:36;19.52;;;16.27;;
40176;SDS011;31511;46.176;9.874;2022-11-14T02:26:02;18.88;;;15.30;;
40176;SDS011;31511;46.176;9.874;2022-11-14T02:28:29;18.65;;;13.77;;
40176;SDS011;31511;46.176;9.874;2022-11-14T02:30:55;16.60;;;11.80;;
40176;SDS011;31511;46.176;9.874;2022-11-14T02:33:23;17.05;;;12.18;;
40176;SDS011;31511;46.176;9.874;2022-11-14T02:35:51;18.45;;;13.85;;
40176;SDS011;31511;46.176;9.874;2022-11-14T02:38:17;16.00;;;13.65;;
40176;SDS011;31511;46.176;9.874;2022-11-14T02:40:43;19.17;;;13.48;;
40176;SDS011;31511;46.176;9.874;2022-11-14T02:43:09;18.73;;;13.70;;
40176;SDS011;31511;46.176;9.874;2022-11-14T02:45:35;17.30;;;12.05;;
40176;SDS011;31511;46.176;9.874;2022-11-14T02:48:02;16.25;;;12.00;;
40176;SDS011;31511;46.176;9.874;2022-11-14T02:50:29;15.77;;;11.93;;
40176;SDS011;31511;46.176;9.874;2022-11-14T02:52:56;16.17;;;12.20;;
40176;SDS011;31511;46.176;9.874;2022-11-14T02:55:24;15.18;;;11.50;;
40176;SDS011;31511;46.176;9.874;2022-11-14T02:57:52;14.13;;;11.27;;
40176;SDS011;31511;46.176;9.874;2022-11-14T03:00:18;14.63;;;11.93;;
40176;SDS011;31511;46.176;9.874;2022-11-14T03:02:44;15.93;;;12.88;;
40176;SDS011;31511;46.176;9.874;2022-11-14T03:05:10;16.08;;;12.23;;
40176;SDS011;31511;46.176;9.874;2022-11-14T03:07:38;16.08;;;12.80;;
40176;SDS011;31511;46.176;9.874;2022-11-14T03:10:04;15.02;;;12.48;;
40176;SDS011;31511;46.176;9.874;2022-11-14T03:12:30;15.75;;;12.18;;
40176;SDS011;31511;46.176;9.874;2022-11-14T03:14:56;15.70;;;12.00;;
40176;SDS011;31511;46.176;9.874;2022-11-14T03:17:24;18.50;;;13.63;;
40176;SDS011;31511;46.176;9.874;2022-11-14T03:19:52;15.57;;;12.35;;
40176;SDS011;31511;46.176;9.874;2022-11-14T03:22:19;20.13;;;12.82;;
40176;SDS011;31511;46.176;9.874;2022-11-14T03:24:46;16.67;;;12.88;;
40176;SDS011;31511;46.176;9.874;2022-11-14T03:27:12;15.73;;;11.32;;
40176;SDS011;31511;46.176;9.874;2022-11-14T03:29:39;16.65;;;12.15;;
40176;SDS011;31511;46.176;9.874;2022-11-14T03:32:05;14.88;;;12.75;;
40176;SDS011;31511;46.176;9.874;2022-11-14T03:34:31;16.55;;;12.65;;
40176;SDS011;31511;46.176;9.874;2022-11-14T03:36:57;16.92;;;12.75;;
40176;SDS011;31511;46.176;9.874;2022-11-14T03:39:26;18.10;;;12.88;;
40176;SDS011;31511;46.176;9.874;2022-11-14T03:41:53;18.40;;;12.85;;
40176;SDS011;31511;46.176;9.874;2022-11-14T03:44:19;15.13;;;12.40;;
40176;SDS011;31511;46.176;9.874;2022-11-14T03:46:45;15.98;;;12.35;;
40176;SDS011;31511;46.176;9.874;2022-11-14T03:49:11;20.98;;;13.10;;
40176;SDS011;31511;46.176;9.874;2022-11-14T03:51:37;15.63;;;13.23;;
40176;SDS011;31511;46.176;9.874;2022-11-14T03:54:03;18.48;;;13.40;;
40176;SDS011;31511;46.176;9.874;2022-11-14T03:56:29;18.65;;;12.60;;
40176;SDS011;31511;46.176;9.874;2022-11-14T03:58:55;16.52;;;12.68;;
40176;SDS011;31511;46.176;9.874;2022-11-14T04:01:22;17.00;;;12.05;;
40176;SDS011;31511;46.176;9.874;2022-11-14T04:03:48;18.17;;;11.90;;
40176;SDS011;31511;46.176;9.874;2022-11-14T04:06:14;18.23;;;14.40;;
40176;SDS011;31511;46.176;9.874;2022-11-14T04:08:40;16.67;;;13.00;;
40176;SDS011;31511;46.176;9.874;2022-11-14T04:11:06;16.63;;;13.52;;
40176;SDS011;31511;46.176;9.874;2022-11-14T04:13:32;18.63;;;13.30;;
40176;SDS011;31511;46.176;9.874;2022-11-14T04:15:58;17.83;;;12.35;;
40176;SDS011;31511;46.176;9.874;2022-11-14T04:18:24;16.17;;;13.57;;
40176;SDS011;31511;46.176;9.874;2022-11-14T04:20:51;14.57;;;11.93;;
40176;SDS011;31511;46.176;9.874;2022-11-14T04:23:17;15.68;;;11.93;;
40176;SDS011;31511;46.176;9.874;2022-11-14T04:25:43;15.73;;;12.82;;
40176;SDS011;31511;46.176;9.874;2022-11-14T04:28:10;18.40;;;13.65;;
40176;SDS011;31511;46.176;9.874;2022-11-14T04:30:37;15.60;;;12.63;;
40176;SDS011;31511;46.176;9.874;2022-11-14T04:33:05;16.02;;;12.38;;
40176;SDS011;31511;46.176;9.874;2022-11-14T04:35:31;16.80;;;12.90;;
40176;SDS011;31511;46.176;9.874;2022-11-14T04:37:57;14.95;;;12.15;;
40176;SDS011;31511;46.176;9.874;2022-11-14T04:40:23;15.45;;;12.80;;
40176;SDS011;31511;46.176;9.874;2022-11-14T04:42:51;17.27;;;13.63;;
40176;SDS011;31511;46.176;9.874;2022-11-14T04:45:17;14.57;;;12.55;;
40176;SDS011;31511;46.176;9.874;2022-11-14T04:47:44;14.70;;;12.38;;
40176;SDS011;31511;46.176;9.874;2022-11-14T04:50:11;13.93;;;12.25;;
40176;SDS011;31511;46.176;9.874;2022-11-14T04:52:38;15.75;;;11.75;;
40176;SDS011;31511;46.176;9.874;2022-11-14T04:55:04;16.95;;;12.65;;
40176;SDS011;31511;46.176;9.874;2022-11-14T04:57:30;22.17;;;12.60;;
40176;SDS011;31511;46.176;9.874;2022-11-14T04:59:56;17.95;;;12.90;;
40176;SDS011;31511;46.176;9.874;2022-11-14T05:02:22;15.63;;;11.75;;
40176;SDS011;31511;46.176;9.874;2022-11-14T05:04:48;15.32;;;12.82;;
40176;SDS011;31511;46.176;9.874;2022-11-14T05:07:14;15.65;;;11.50;;
40176;SDS011;31511;46.176;9.874;2022-11-14T05:09:40;18.77;;;12.73;;
40176;SDS011;31511;46.176;9.874;2022-11-14T05:12:07;15.50;;;12.85;;
40176;SDS011;31511;46.176;9.874;2022-11-14T05:14:33;15.35;;;13.13;;
40176;SDS011;31511;46.176;9.874;2022-11-14T05:16:59;15.98;;;13.75;;
40176;SDS011;31511;46.176;9.874;2022-11-14T05:19:25;17.67;;;14.25;;
40176;SDS011;31511;46.176;9.874;2022-11-14T05:21:51;17.67;;;14.05;;
40176;SDS011;31511;46.176;9.874;2022-11-14T05:24:17;17.30;;;13.48;;
40176;SDS011;31511;46.176;9.874;2022-11-14T05:26:43;14.05;;;11.60;;
40176;SDS011;31511;46.176;9.874;2022-11-14T05:29:09;15.18;;;12.57;;
40176;SDS011;31511;46.176;9.874;2022-11-14T05:31:35;14.15;;;12.15;;
40176;SDS011;31511;46.176;9.874;2022-11-14T05:34:01;18.90;;;13.70;;
40176;SDS011;31511;46.176;9.874;2022-11-14T05:36:29;14.48;;;12.48;;
40176;SDS011;31511;46.176;9.874;2022-11-14T05:38:58;16.52;;;13.75;;
40176;SDS011;31511;46.176;9.874;2022-11-14T05:41:25;16.90;;;13.20;;
40176;SDS011;31511;46.176;9.874;2022-11-14T05:43:52;21.40;;;15.32;;
40176;SDS011;31511;46.176;9.874;2022-11-14T05:46:19;17.50;;;13.63;;
40176;SDS011;31511;46.176;9.874;2022-11-14T05:48:45;21.83;;;16.58;;
40176;SDS011;31511;46.176;9.874;2022-11-14T05:51:11;21.60;;;16.17;;
40176;SDS011;31511;46.176;9.874;2022-11-14T05:53:39;17.88;;;14.52;;
40176;SDS011;31511;46.176;9.874;2022-11-14T05:56:06;17.80;;;13.77;;
40176;SDS011;31511;46.176;9.874;2022-11-14T05:58:35;15.85;;;13.25;;
40176;SDS011;31511;46.176;9.874;2022-11-14T06:01:11;16.60;;;13.52;;
40176;SDS011;31511;46.176;9.874;2022-11-14T06:03:42;17.83;;;13.20;;
40176;SDS011;31511;46.176;9.874;2022-11-14T06:06:10;17.80;;;11.68;;
40176;SDS011;31511;46.176;9.874;2022-11-14T06:08:37;15.90;;;13.38;;
40176;SDS011;31511;46.176;9.874;2022-11-14T06:11:04;16.83;;;13.35;;
40176;SDS011;31511;46.176;9.874;2022-11-14T06:13:31;16.02;;;12.93;;
40176;SDS011;31511;46.176;9.874;2022-11-14T06:16:00;17.70;;;14.20;;
40176;SDS011;31511;46.176;9.874;2022-11-14T06:18:27;17.33;;;14.18;;
40176;SDS011;31511;46.176;9.874;2022-11-14T06:20:57;19.30;;;14.93;;
40176;SDS011;31511;46.176;9.874;2022-11-14T06:23:23;18.25;;;14.02;;
40176;SDS011;31511;46.176;9.874;2022-11-14T06:25:49;17.70;;;15.60;;
40176;SDS011;31511;46.176;9.874;2022-11-14T06:28:15;18.35;;;14.32;;
40176;SDS011;31511;46.176;9.874;2022-11-14T06:30:41;15.95;;;13.38;;
40176;SDS011;31511;46.176;9.874;2022-11-14T06:33:07;22.60;;;15.88;;
40176;SDS011;31511;46.176;9.874;2022-11-14T06:35:33;22.02;;;16.75;;
40176;SDS011;31511;46.176;9.874;2022-11-14T06:38:01;18.02;;;14.88;;
40176;SDS011;31511;46.176;9.874;2022-11-14T06:40:27;24.58;;;17.55;;
40176;SDS011;31511;46.176;9.874;2022-11-14T06:42:56;17.58;;;14.10;;
40176;SDS011;31511;46.176;9.874;2022-11-14T06:45:22;22.42;;;17.50;;
40176;SDS011;31511;46.176;9.874;2022-11-14T06:47:48;20.80;;;17.10;;
40176;SDS011;31511;46.176;9.874;2022-11-14T06:50:14;22.63;;;18.60;;
40176;SDS011;31511;46.176;9.874;2022-11-14T06:52:40;25.45;;;16.92;;
40176;SDS011;31511;46.176;9.874;2022-11-14T06:55:06;24.45;;;19.67;;
40176;SDS011;31511;46.176;9.874;2022-11-14T06:57:32;28.85;;;21.13;;
40176;SDS011;31511;46.176;9.874;2022-11-14T06:59:58;25.50;;;17.02;;
40176;SDS011;31511;46.176;9.874;2022-11-14T07:02:25;19.20;;;15.90;;
40176;SDS011;31511;46.176;9.874;2022-11-14T07:04:51;18.42;;;14.27;;
40176;SDS011;31511;46.176;9.874;2022-11-14T07:07:17;17.50;;;14.70;;
40176;SDS011;31511;46.176;9.874;2022-11-14T07:09:43;20.60;;;15.10;;
40176;SDS011;31511;46.176;9.874;2022-11-14T07:12:09;17.92;;;13.98;;
40176;SDS011;31511;46.176;9.874;2022-11-14T07:14:35;23.10;;;16.15;;
40176;SDS011;31511;46.176;9.874;2022-11-14T07:17:01;19.60;;;15.23;;
40176;SDS011;31511;46.176;9.874;2022-11-14T07:19:29;17.42;;;13.63;;
40176;SDS011;31511;46.176;9.874;2022-11-14T07:21:55;20.23;;;14.77;;
40176;SDS011;31511;46.176;9.874;2022-11-14T07:24:23;20.20;;;16.20;;
40176;SDS011;31511;46.176;9.874;2022-11-14T07:26:51;19.35;;;14.75;;
40176;SDS011;31511;46.176;9.874;2022-11-14T07:29:17;22.60;;;16.10;;
40176;SDS011;31511;46.176;9.874;2022-11-14T07:31:43;20.85;;;15.70;;
40176;SDS011;31511;46.176;9.874;2022-11-14T07:34:09;24.98;;;17.73;;
40176;SDS011;31511;46.176;9.874;2022-11-14T07:36:36;24.52;;;18.65;;
40176;SDS011;31511;46.176;9.874;2022-11-14T07:39:02;26.30;;;20.63;;
40176;SDS011;31511;46.176;9.874;2022-11-14T07:41:29;23.35;;;18.88;;
40176;SDS011;31511;46.176;9.874;2022-11-14T07:43:55;29.13;;;20.88;;
40176;SDS011;31511;46.176;9.874;2022-11-14T07:46:23;24.95;;;18.13;;
40176;SDS011;31511;46.176;9.874;2022-11-14T07:48:51;25.02;;;19.05;;
40176;SDS011;31511;46.176;9.874;2022-11-14T07:51:18;24.83;;;18.77;;
40176;SDS011;31511;46.176;9.874;2022-11-14T07:53:46;27.67;;;20.45;;
40176;SDS011;31511;46.176;9.874;2022-11-14T07:56:12;24.65;;;19.70;;
40176;SDS011;31511;46.176;9.874;2022-11-14T07:58:41;24.75;;;19.27;;
40176;SDS011;31511;46.176;9.874;2022-11-14T08:01:08;26.85;;;21.30;;
40176;SDS011;31511;46.176;9.874;2022-11-14T08:03:34;23.23;;;18.48;;
40176;SDS011;31511;46.176;9.874;2022-11-14T08:06:02;27.30;;;21.48;;
40176;SDS011;31511;46.176;9.874;2022-11-14T08:08:29;27.90;;;20.63;;
40176;SDS011;31511;46.176;9.874;2022-11-14T08:10:58;27.92;;;21.35;;
40176;SDS011;31511;46.176;9.874;2022-11-14T08:13:26;28.45;;;19.75;;
40176;SDS011;31511;46.176;9.874;2022-11-14T08:15:54;25.02;;;20.55;;
40176;SDS011;31511;46.176;9.874;2022-11-14T08:18:21;28.00;;;21.98;;
40176;SDS011;31511;46.176;9.874;2022-11-14T08:20:50;29.33;;;23.13;;
40176;SDS011;31511;46.176;9.874;2022-11-14T08:23:16;23.95;;;16.15;;
40176;SDS011;31511;46.176;9.874;2022-11-14T08:25:44;22.55;;;17.33;;
40176;SDS011;31511;46.176;9.874;2022-11-14T08:28:10;22.33;;;17.52;;
40176;SDS011;31511;46.176;9.874;2022-11-14T08:30:37;22.35;;;17.52;;
40176;SDS011;31511;46.176;9.874;2022-11-14T08:33:03;24.58;;;17.90;;
40176;SDS011;31511;46.176;9.874;2022-11-14T08:35:31;30.17;;;19.83;;
40176;SDS011;31511;46.176;9.874;2022-11-14T08:37:57;27.48;;;20.92;;
40176;SDS011;31511;46.176;9.874;2022-11-14T08:40:26;27.00;;;21.33;;
40176;SDS011;31511;46.176;9.874;2022-11-14T08:43:01;28.52;;;21.77;;
40176;SDS011;31511;46.176;9.874;2022-11-14T08:45:28;21.15;;;18.42;;
40176;SDS011;31511;46.176;9.874;2022-11-14T08:47:55;20.63;;;16.98;;
40176;SDS011;31511;46.176;9.874;2022-11-14T08:50:22;30.55;;;22.73;;
40176;SDS011;31511;46.176;9.874;2022-11-14T08:52:50;24.02;;;18.98;;
40176;SDS011;31511;46.176;9.874;2022-11-14T08:55:17;21.35;;;17.35;;
40176;SDS011;31511;46.176;9.874;2022-11-14T08:57:45;23.08;;;18.58;;
40176;SDS011;31511;46.176;9.874;2022-11-14T09:00:11;25.98;;;18.50;;
40176;SDS011;31511;46.176;9.874;2022-11-14T09:02:37;27.27;;;21.48;;
40176;SDS011;31511;46.176;9.874;2022-11-14T09:05:04;28.90;;;20.88;;
40176;SDS011;31511;46.176;9.874;2022-11-14T09:07:30;24.13;;;19.23;;
40176;SDS011;31511;46.176;9.874;2022-11-14T09:09:57;26.85;;;19.58;;
40176;SDS011;31511;46.176;9.874;2022-11-14T09:12:24;26.20;;;19.55;;
40176;SDS011;31511;46.176;9.874;2022-11-14T09:14:52;24.58;;;19.10;;
40176;SDS011;31511;46.176;9.874;2022-11-14T09:17:19;24.40;;;18.25;;
40176;SDS011;31511;46.176;9.874;2022-11-14T09:19:46;25.20;;;19.23;;
40176;SDS011;31511;46.176;9.874;2022-11-14T09:22:12;26.92;;;20.90;;
40176;SDS011;31511;46.176;9.874;2022-11-14T09:24:40;21.85;;;17.83;;
40176;SDS011;31511;46.176;9.874;2022-11-14T09:27:07;27.52;;;20.45;;
40176;SDS011;31511;46.176;9.874;2022-11-14T09:29:34;24.90;;;19.17;;
40176;SDS011;31511;46.176;9.874;2022-11-14T09:32:00;23.13;;;19.00;;
40176;SDS011;31511;46.176;9.874;2022-11-14T09:34:28;24.77;;;17.98;;
40176;SDS011;31511;46.176;9.874;2022-11-14T09:36:55;22.63;;;16.63;;
40176;SDS011;31511;46.176;9.874;2022-11-14T09:39:22;21.90;;;16.15;;
40176;SDS011;31511;46.176;9.874;2022-11-14T09:44:20;19.02;;;16.73;;
40176;SDS011;31511;46.176;9.874;2022-11-14T09:46:53;23.60;;;16.98;;
40176;SDS011;31511;46.176;9.874;2022-11-14T09:49:24;19.63;;;15.02;;
40176;SDS011;31511;46.176;9.874;2022-11-14T09:51:59;18.80;;;15.18;;
40176;SDS011;31511;46.176;9.874;2022-11-14T09:54:31;21.30;;;17.13;;
40176;SDS011;31511;46.176;9.874;2022-11-14T09:56:58;20.75;;;16.92;;
40176;SDS011;31511;46.176;9.874;2022-11-14T09:59:26;21.75;;;15.38;;
40176;SDS011;31511;46.176;9.874;2022-11-14T10:02:04;18.20;;;15.63;;
40176;SDS011;31511;46.176;9.874;2022-11-14T10:07:53;19.52;;;15.90;;
40176;SDS011;31511;46.176;9.874;2022-11-14T10:18:12;18.27;;;15.98;;
40176;SDS011;31511;46.176;9.874;2022-11-14T10:20:47;19.75;;;15.18;;
40176;SDS011;31511;46.176;9.874;2022-11-14T10:23:18;22.15;;;14.88;;
40176;SDS011;31511;46.176;9.874;2022-11-14T10:29:08;25.55;;;16.70;;
40176;SDS011;31511;46.176;9.874;2022-11-14T10:31:06;19.52;;;17.42;;
40176;SDS011;31511;46.176;9.874;2022-11-14T10:33:45;20.00;;;14.93;;
40176;SDS011;31511;46.176;9.874;2022-11-14T10:38:42;20.17;;;16.15;;
40176;SDS011;31511;46.176;9.874;2022-11-14T10:41:13;20.35;;;16.58;;
40176;SDS011;31511;46.176;9.874;2022-11-14T10:43:44;17.90;;;14.48;;
40176;SDS011;31511;46.176;9.874;2022-11-14T10:48:43;17.83;;;13.93;;
40176;SDS011;31511;46.176;9.874;2022-11-14T10:51:16;16.08;;;13.90;;
40176;SDS011;31511;46.176;9.874;2022-11-14T10:56:12;17.52;;;13.63;;
40176;SDS011;31511;46.176;9.874;2022-11-14T10:58:40;19.10;;;13.98;;
40176;SDS011;31511;46.176;9.874;2022-11-14T11:03:52;17.33;;;13.13;;
40176;SDS011;31511;46.176;9.874;2022-11-14T11:06:26;17.45;;;14.52;;
40176;SDS011;31511;46.176;9.874;2022-11-14T11:08:55;16.85;;;13.48;;
40176;SDS011;31511;46.176;9.874;2022-11-14T11:11:40;17.40;;;13.80;;
40176;SDS011;31511;46.176;9.874;2022-11-14T11:14:15;18.33;;;13.30;;
40176;SDS011;31511;46.176;9.874;2022-11-14T11:19:35;15.90;;;12.38;;
40176;SDS011;31511;46.176;9.874;2022-11-14T11:22:01;15.43;;;12.43;;
40176;SDS011;31511;46.176;9.874;2022-11-14T11:24:32;15.88;;;12.13;;
40176;SDS011;31511;46.176;9.874;2022-11-14T11:27:12;15.55;;;12.07;;
40176;SDS011;31511;46.176;9.874;2022-11-14T11:29:39;17.13;;;12.38;;
40176;SDS011;31511;46.176;9.874;2022-11-14T11:32:07;13.80;;;11.55;;
40176;SDS011;31511;46.176;9.874;2022-11-14T11:34:34;14.50;;;11.60;;
40176;SDS011;31511;46.176;9.874;2022-11-14T11:37:05;19.08;;;13.40;;
40176;SDS011;31511;46.176;9.874;2022-11-14T11:39:38;19.42;;;14.65;;
40176;SDS011;31511;46.176;9.874;2022-11-14T11:42:06;17.52;;;13.10;;
40176;SDS011;31511;46.176;9.874;2022-11-14T11:44:35;19.00;;;14.27;;
40176;SDS011;31511;46.176;9.874;2022-11-14T11:47:03;20.00;;;14.65;;
40176;SDS011;31511;46.176;9.874;2022-11-14T11:49:46;16.77;;;13.73;;
40176;SDS011;31511;46.176;9.874;2022-11-14T11:52:33;17.85;;;13.00;;
40176;SDS011;31511;46.176;9.874;2022-11-14T11:57:44;20.05;;;12.77;;
40176;SDS011;31511;46.176;9.874;2022-11-14T12:02:45;16.40;;;13.02;;
40176;SDS011;31511;46.176;9.874;2022-11-14T12:05:12;15.00;;;13.40;;
40176;SDS011;31511;46.176;9.874;2022-11-14T12:07:52;15.77;;;12.98;;
40176;SDS011;31511;46.176;9.874;2022-11-14T12:10:21;12.23;;;10.43;;
40176;SDS011;31511;46.176;9.874;2022-11-14T12:12:55;12.35;;;10.30;;
40176;SDS011;31511;46.176;9.874;2022-11-14T12:20:50;9.52;;;8.32;;
40176;SDS011;31511;46.176;9.874;2022-11-14T12:23:40;10.57;;;8.88;;
40176;SDS011;31511;46.176;9.874;2022-11-14T12:28:43;11.40;;;9.73;;
40176;SDS011;31511;46.176;9.874;2022-11-14T12:31:12;11.77;;;9.45;;
40176;SDS011;31511;46.176;9.874;2022-11-14T12:33:47;11.20;;;9.38;;
40176;SDS011;31511;46.176;9.874;2022-11-14T12:36:15;11.60;;;8.80;;
40176;SDS011;31511;46.176;9.874;2022-11-14T12:38:46;10.95;;;8.80;;
40176;SDS011;31511;46.176;9.874;2022-11-14T12:41:19;11.02;;;9.30;;
40176;SDS011;31511;46.176;9.874;2022-11-14T12:43:51;9.63;;;8.63;;
40176;SDS011;31511;46.176;9.874;2022-11-14T12:46:17;12.15;;;9.07;;
40176;SDS011;31511;46.176;9.874;2022-11-14T12:48:43;11.55;;;10.15;;
40176;SDS011;31511;46.176;9.874;2022-11-14T12:53:55;12.25;;;8.93;;
40176;SDS011;31511;46.176;9.874;2022-11-14T13:04:17;10.52;;;8.93;;
40176;SDS011;31511;46.176;9.874;2022-11-14T13:09:29;11.50;;;8.75;;
40176;SDS011;31511;46.176;9.874;2022-11-14T13:11:58;11.55;;;10.15;;
40176;SDS011;31511;46.176;9.874;2022-11-14T13:14:53;11.60;;;9.15;;
40176;SDS011;31511;46.176;9.874;2022-11-14T13:17:38;11.13;;;9.30;;
40176;SDS011;31511;46.176;9.874;2022-11-14T13:20:25;11.45;;;9.43;;
40176;SDS011;31511;46.176;9.874;2022-11-14T13:28:47;14.55;;;9.45;;
40176;SDS011;31511;46.176;9.874;2022-11-14T13:33:41;9.63;;;8.13;;
40176;SDS011;31511;46.176;9.874;2022-11-14T13:44:40;11.32;;;8.70;;
40176;SDS011;31511;46.176;9.874;2022-11-14T13:52:39;12.55;;;9.18;;
40176;SDS011;31511;46.176;9.874;2022-11-14T13:55:06;11.50;;;9.60;;
40176;SDS011;31511;46.176;9.874;2022-11-14T13:57:40;11.75;;;9.10;;
40176;SDS011;31511;46.176;9.874;2022-11-14T14:00:10;13.85;;;10.95;;
40176;SDS011;31511;46.176;9.874;2022-11-14T14:02:50;14.10;;;9.93;;
40176;SDS011;31511;46.176;9.874;2022-11-14T14:05:29;12.60;;;9.38;;
40176;SDS011;31511;46.176;9.874;2022-11-14T14:08:00;10.15;;;7.57;;
40176;SDS011;31511;46.176;9.874;2022-11-14T14:10:50;10.70;;;9.45;;
40176;SDS011;31511;46.176;9.874;2022-11-14T14:16:12;10.48;;;8.43;;
40176;SDS011;31511;46.176;9.874;2022-11-14T14:18:53;10.63;;;8.77;;
40176;SDS011;31511;46.176;9.874;2022-11-14T14:31:32;14.43;;;9.60;;
40176;SDS011;31511;46.176;9.874;2022-11-14T14:33:59;12.05;;;9.38;;
40176;SDS011;31511;46.176;9.874;2022-11-14T14:36:27;12.57;;;9.27;;
40176;SDS011;31511;46.176;9.874;2022-11-14T14:39:10;12.77;;;9.25;;
40176;SDS011;31511;46.176;9.874;2022-11-14T14:41:37;11.20;;;9.85;;
40176;SDS011;31511;46.176;9.874;2022-11-14T14:44:03;11.18;;;9.55;;
40176;SDS011;31511;46.176;9.874;2022-11-14T14:46:31;11.15;;;9.30;;
40176;SDS011;31511;46.176;9.874;2022-11-14T14:48:59;11.40;;;8.93;;
40176;SDS011;31511;46.176;9.874;2022-11-14T14:51:30;10.95;;;9.07;;
40176;SDS011;31511;46.176;9.874;2022-11-14T14:53:57;10.73;;;7.10;;
40176;SDS011;31511;46.176;9.874;2022-11-14T14:56:24;9.55;;;7.40;;
40176;SDS011;31511;46.176;9.874;2022-11-14T14:58:53;8.10;;;6.80;;
40176;SDS011;31511;46.176;9.874;2022-11-14T15:01:22;9.82;;;6.90;;
40176;SDS011;31511;46.176;9.874;2022-11-14T15:03:56;8.40;;;6.85;;
40176;SDS011;31511;46.176;9.874;2022-11-14T15:06:36;8.60;;;7.03;;
40176;SDS011;31511;46.176;9.874;2022-11-14T15:11:30;10.95;;;8.32;;
40176;SDS011;31511;46.176;9.874;2022-11-14T15:13:58;13.25;;;8.02;;
40176;SDS011;31511;46.176;9.874;2022-11-14T15:16:27;8.57;;;6.70;;
40176;SDS011;31511;46.176;9.874;2022-11-14T15:18:56;9.80;;;7.82;;
40176;SDS011;31511;46.176;9.874;2022-11-14T15:21:25;10.85;;;7.88;;
40176;SDS011;31511;46.176;9.874;2022-11-14T15:26:27;10.23;;;8.00;;
40176;SDS011;31511;46.176;9.874;2022-11-14T15:29:03;11.02;;;7.72;;
40176;SDS011;31511;46.176;9.874;2022-11-14T15:31:31;14.32;;;8.30;;
40176;SDS011;31511;46.176;9.874;2022-11-14T15:34:06;10.80;;;6.55;;
40176;SDS011;31511;46.176;9.874;2022-11-14T15:37:17;10.43;;;7.93;;
40176;SDS011;31511;46.176;9.874;2022-11-14T15:39:34;10.70;;;7.90;;
40176;SDS011;31511;46.176;9.874;2022-11-14T15:42:15;12.88;;;7.90;;
40176;SDS011;31511;46.176;9.874;2022-11-14T15:44:43;11.95;;;8.07;;
40176;SDS011;31511;46.176;9.874;2022-11-14T15:47:56;12.10;;;7.93;;
40176;SDS011;31511;46.176;9.874;2022-11-14T15:49:59;10.50;;;7.13;;
40176;SDS011;31511;46.176;9.874;2022-11-14T15:52:31;9.88;;;8.00;;
40176;SDS011;31511;46.176;9.874;2022-11-14T15:54:58;11.07;;;9.02;;
40176;SDS011;31511;46.176;9.874;2022-11-14T15:57:26;12.02;;;8.40;;
40176;SDS011;31511;46.176;9.874;2022-11-14T15:59:55;10.63;;;8.68;;
40176;SDS011;31511;46.176;9.874;2022-11-14T16:02:29;12.20;;;8.50;;
40176;SDS011;31511;46.176;9.874;2022-11-14T16:04:57;9.38;;;7.50;;
40176;SDS011;31511;46.176;9.874;2022-11-14T16:07:24;9.10;;;7.72;;